Manila Express — VRCX7 — position and weather

sailwx.info

Track history (hours):
 
Tides and Currents Weather Stations Pressure Air Temp Water Temp Dewpoint Dewpoint Depression Visibility Wind Speed Wind Dir Waves Ship Positions

Manila Express

Last reported at 2017-Feb-25 13:34 UTC. Time now 2017-Feb-25 13:52 UTC.
Position N 39°27' W 000°19'.

Length 260 m; draft 9.6 m.

Type: Ship (hazmat cat A). MMSI: 477830800.

Date/timePositionNaut miles runAvg speedWind from/ knotsBaromVisibWave heightAir tempDewpointWater temp
2017-Feb-25 13:34N 39°27' W 000°19'0 0.0
2017-Feb-25 12:34N 39°27' W 000°19'0 0.0
2017-Feb-25 11:34N 39°27' W 000°19'0 0.0
2017-Feb-25 10:33N 39°27' W 000°19'0 0.0
2017-Feb-25 09:34N 39°27' W 000°19'0 0.0
2017-Feb-25 08:34N 39°27' W 000°19'0 0.0
2017-Feb-25 07:34N 39°27' W 000°19'0 0.0
2017-Feb-25 06:34N 39°27' W 000°19'0 0.0
2017-Feb-25 05:33N 39°27' W 000°19'0 0.0
2017-Feb-25 04:34N 39°27' W 000°19'0 0.0
2017-Feb-25 03:34N 39°27' W 000°19'0 0.0
2017-Feb-25 02:34N 39°27' W 000°19'0 0.0
2017-Feb-25 01:34N 39°27' W 000°19'0 0.0
2017-Feb-25 00:34N 39°27' W 000°19'0 0.0
2017-Feb-24 23:34N 39°27' W 000°19'5 4.9
2017-Feb-24 22:34N 39°24' W 000°14'7812.7
2017-Feb-24 16:26N 38°07' W 000°03'2016.3
2017-Feb-24 15:14N 37°50' W 000°16'1116.1
2017-Feb-24 14:33N 37°41' W 000°24'1616.4
2017-Feb-24 13:33N 37°28' W 000°37'1716.5
2017-Feb-24 12:33N 37°17' W 000°53'20415.5
2017-Feb-23 23:22N 36°04' W 004°50'1315.8
2017-Feb-23 22:33N 36°02' W 005°06'1716.6
2017-Feb-23 21:33N 35°57' W 005°26'5 4.7
2017-Feb-23 20:32N 35°54' W 005°29'0 0.0
2017-Feb-23 19:29N 35°54' W 005°29'0 0.0
2017-Feb-23 18:26N 35°54' W 005°29'0 0.0
2017-Feb-23 17:32N 35°54' W 005°29'0 0.0
2017-Feb-23 16:32N 35°54' W 005°29'0 0.0
2017-Feb-23 15:26N 35°54' W 005°29'0 0.0
2017-Feb-23 14:29N 35°54' W 005°29'0 0.0
2017-Feb-23 13:23N 35°54' W 005°29'0 0.1
2017-Feb-23 12:33N 35°54' W 005°30'2 2.1
2017-Feb-23 11:33N 35°55' W 005°32'4 2.9
2017-Feb-23 10:17N 35°52' W 005°35'0 0.0
2017-Feb-23 09:29N 35°52' W 005°35'0 0.1
2017-Feb-23 08:32N 35°52' W 005°35'2 1.9
2017-Feb-23 07:33N 35°54' W 005°34'2 1.9
2017-Feb-23 06:31N 35°54' W 005°36'1212.5
2017-Feb-23 05:33N 35°54' W 005°51'18812.5
2017-Feb-22 14:31N 36°44' W 009°36'3712.5
2017-Feb-22 11:33N 37°21' W 009°41'1312.7
2017-Feb-22 10:33N 37°33' W 009°41'1312.7
2017-Feb-22 09:33N 37°46' W 009°41'1312.8
2017-Feb-22 08:33N 37°59' W 009°41'1312.9
2017-Feb-22 07:33N 38°12' W 009°40'1212.4
2017-Feb-22 06:33N 38°24' W 009°35'1313.2
2017-Feb-22 05:33N 38°34' W 009°25'1413.6
2017-Feb-22 04:33N 38°42' W 009°10'0 0.3
2017-Feb-22 03:29N 38°42' W 009°10'0 0.0
2017-Feb-22 02:32N 38°42' W 009°10'0 0.0
2017-Feb-22 01:32N 38°42' W 009°10'0 0.0
2017-Feb-22 00:32N 38°42' W 009°10'0 0.0
2017-Feb-21 23:32N 38°42' W 009°10'0 0.0
2017-Feb-21 22:20N 38°42' W 009°10'0 0.0
2017-Feb-21 21:32N 38°42' W 009°10'0 0.0
2017-Feb-21 19:32N 38°42' W 009°10'0 0.0
2017-Feb-21 18:26N 38°42' W 009°10'0 0.0
2017-Feb-21 17:29N 38°42' W 009°10'0 0.0
2017-Feb-21 16:26N 38°42' W 009°10'0 0.0
2017-Feb-21 15:14N 38°42' W 009°10'0 0.0
2017-Feb-21 14:23N 38°42' W 009°10'0 0.0
2017-Feb-21 13:32N 38°42' W 009°10'0 0.0
2017-Feb-21 12:23N 38°42' W 009°10'0 0.0
2017-Feb-21 11:11N 38°42' W 009°10'0 0.0
2017-Feb-21 10:23N 38°42' W 009°10'0 0.0
2017-Feb-21 09:26N 38°42' W 009°10'0 0.0
2017-Feb-21 08:23N 38°42' W 009°10'0 0.0
2017-Feb-21 07:33N 38°42' W 009°10'3 2.4
2017-Feb-21 06:29N 38°41' W 009°13'9 9.2
2017-Feb-21 05:33N 38°39' W 009°23'1110.7
2017-Feb-21 04:33N 38°37' W 009°37'1414.3
2017-Feb-21 03:33N 38°30' W 009°53'1615.8
2017-Feb-21 02:33N 38°27' W 010°13'1515.4
2017-Feb-21 01:33N 38°24' W 010°32'1515.2
2017-Feb-21 00:33N 38°21' W 010°51'1515.1
2017-Feb-20 23:33N 38°17' W 011°10'1615.1
2017-Feb-20 22:28N 38°13' W 011°30'49616.5
2017-Feb-19 16:31N 35°59' W 021°29'1717.0
2017-Feb-19 15:32N 35°53' W 021°48'1816.9
2017-Feb-19 14:28N 35°48' W 022°09'1617.0
2017-Feb-19 13:33N 35°43' W 022°27'1717.1
2017-Feb-19 12:33N 35°37' W 022°47'1717.0
2017-Feb-19 11:33N 35°31' W 023°06'1716.9
2017-Feb-19 10:34N 35°26' W 023°26'1717.0
2017-Feb-19 09:33N 35°20' W 023°46'1717.0
2017-Feb-19 08:33N 35°14' W 024°05'1717.2
2017-Feb-19 07:33N 35°09' W 024°25'1817.5
2017-Feb-19 06:33N 35°03' W 024°45'1817.7
2017-Feb-19 05:33N 34°57' W 025°06'1817.6
2017-Feb-19 04:33N 34°51' W 025°26'1817.6
2017-Feb-19 03:33N 34°44' W 025°46'1817.6
2017-Feb-19 02:33N 34°37' W 026°05'10516.7
2017-Feb-18 20:16N 33°57' W 028°03'1516.5
2017-Feb-18 19:20N 33°52' W 028°21'1316.3
2017-Feb-18 18:31N 33°47' W 028°36'1616.4
2017-Feb-18 17:32N 33°41' W 028°54'3716.2
2017-Feb-18 15:16N 33°27' W 029°34'1216.2
2017-Feb-18 14:31N 33°22' W 029°48'1616.5
2017-Feb-18 13:33N 33°16' W 030°05'1916.7
2017-Feb-18 12:24N 33°08' W 030°26'1416.7
2017-Feb-18 11:33N 33°02' W 030°42'  
Track history (hours):
 
Tides and Currents Weather Stations Pressure Air Temp Water Temp Dewpoint Dewpoint Depression Visibility Wind Speed Wind Dir Waves Ship Positions

Manila Express

Last reported at 2017-Feb-25 13:34 UTC. Time now 2017-Feb-25 13:52 UTC.
Position N 39°27' W 000°19'.

Length 260 m; draft 9.6 m.

Type: Ship (hazmat cat A). MMSI: 477830800.

Date/timePositionNaut miles runAvg speedWind from/ knotsBaromVisibWave heightAir tempDewpointWater temp
2017-Feb-25 13:34N 39°27' W 000°19'0 0.0
2017-Feb-25 12:34N 39°27' W 000°19'0 0.0
2017-Feb-25 11:34N 39°27' W 000°19'0 0.0
2017-Feb-25 10:33N 39°27' W 000°19'0 0.0
2017-Feb-25 09:34N 39°27' W 000°19'0 0.0
2017-Feb-25 08:34N 39°27' W 000°19'0 0.0
2017-Feb-25 07:34N 39°27' W 000°19'0 0.0
2017-Feb-25 06:34N 39°27' W 000°19'0 0.0
2017-Feb-25 05:33N 39°27' W 000°19'0 0.0
2017-Feb-25 04:34N 39°27' W 000°19'0 0.0
2017-Feb-25 03:34N 39°27' W 000°19'0 0.0
2017-Feb-25 02:34N 39°27' W 000°19'0 0.0
2017-Feb-25 01:34N 39°27' W 000°19'0 0.0
2017-Feb-25 00:34N 39°27' W 000°19'0 0.0
2017-Feb-24 23:34N 39°27' W 000°19'5 4.9
2017-Feb-24 22:34N 39°24' W 000°14'7812.7
2017-Feb-24 16:26N 38°07' W 000°03'2016.3
2017-Feb-24 15:14N 37°50' W 000°16'1116.1
2017-Feb-24 14:33N 37°41' W 000°24'1616.4
2017-Feb-24 13:33N 37°28' W 000°37'1716.5
2017-Feb-24 12:33N 37°17' W 000°53'20415.5
2017-Feb-23 23:22N 36°04' W 004°50'1315.8
2017-Feb-23 22:33N 36°02' W 005°06'1716.6
2017-Feb-23 21:33N 35°57' W 005°26'5 4.7
2017-Feb-23 20:32N 35°54' W 005°29'0 0.0
2017-Feb-23 19:29N 35°54' W 005°29'0 0.0
2017-Feb-23 18:26N 35°54' W 005°29'0 0.0
2017-Feb-23 17:32N 35°54' W 005°29'0 0.0
2017-Feb-23 16:32N 35°54' W 005°29'0 0.0
2017-Feb-23 15:26N 35°54' W 005°29'0 0.0
2017-Feb-23 14:29N 35°54' W 005°29'0 0.0
2017-Feb-23 13:23N 35°54' W 005°29'0 0.1
2017-Feb-23 12:33N 35°54' W 005°30'2 2.1
2017-Feb-23 11:33N 35°55' W 005°32'4 2.9
2017-Feb-23 10:17N 35°52' W 005°35'0 0.0
2017-Feb-23 09:29N 35°52' W 005°35'0 0.1
2017-Feb-23 08:32N 35°52' W 005°35'2 1.9
2017-Feb-23 07:33N 35°54' W 005°34'2 1.9
2017-Feb-23 06:31N 35°54' W 005°36'1212.5
2017-Feb-23 05:33N 35°54' W 005°51'18812.5
2017-Feb-22 14:31N 36°44' W 009°36'3712.5
2017-Feb-22 11:33N 37°21' W 009°41'1312.7
2017-Feb-22 10:33N 37°33' W 009°41'1312.7
2017-Feb-22 09:33N 37°46' W 009°41'1312.8
2017-Feb-22 08:33N 37°59' W 009°41'1312.9
2017-Feb-22 07:33N 38°12' W 009°40'1212.4
2017-Feb-22 06:33N 38°24' W 009°35'1313.2
2017-Feb-22 05:33N 38°34' W 009°25'1413.6
2017-Feb-22 04:33N 38°42' W 009°10'0 0.3
2017-Feb-22 03:29N 38°42' W 009°10'0 0.0
2017-Feb-22 02:32N 38°42' W 009°10'0 0.0
2017-Feb-22 01:32N 38°42' W 009°10'0 0.0
2017-Feb-22 00:32N 38°42' W 009°10'0 0.0
2017-Feb-21 23:32N 38°42' W 009°10'0 0.0
2017-Feb-21 22:20N 38°42' W 009°10'0 0.0
2017-Feb-21 21:32N 38°42' W 009°10'0 0.0
2017-Feb-21 19:32N 38°42' W 009°10'0 0.0
2017-Feb-21 18:26N 38°42' W 009°10'0 0.0
2017-Feb-21 17:29N 38°42' W 009°10'0 0.0
2017-Feb-21 16:26N 38°42' W 009°10'0 0.0
2017-Feb-21 15:14N 38°42' W 009°10'0 0.0
2017-Feb-21 14:23N 38°42' W 009°10'0 0.0
2017-Feb-21 13:32N 38°42' W 009°10'0 0.0
2017-Feb-21 12:23N 38°42' W 009°10'0 0.0
2017-Feb-21 11:11N 38°42' W 009°10'0 0.0
2017-Feb-21 10:23N 38°42' W 009°10'0 0.0
2017-Feb-21 09:26N 38°42' W 009°10'0 0.0
2017-Feb-21 08:23N 38°42' W 009°10'0 0.0
2017-Feb-21 07:33N 38°42' W 009°10'3 2.4
2017-Feb-21 06:29N 38°41' W 009°13'9 9.2
2017-Feb-21 05:33N 38°39' W 009°23'1110.7
2017-Feb-21 04:33N 38°37' W 009°37'1414.3
2017-Feb-21 03:33N 38°30' W 009°53'1615.8
2017-Feb-21 02:33N 38°27' W 010°13'1515.4
2017-Feb-21 01:33N 38°24' W 010°32'1515.2
2017-Feb-21 00:33N 38°21' W 010°51'1515.1
2017-Feb-20 23:33N 38°17' W 011°10'1615.1
2017-Feb-20 22:28N 38°13' W 011°30'49616.5
2017-Feb-19 16:31N 35°59' W 021°29'1717.0
2017-Feb-19 15:32N 35°53' W 021°48'1816.9
2017-Feb-19 14:28N 35°48' W 022°09'1617.0
2017-Feb-19 13:33N 35°43' W 022°27'1717.1
2017-Feb-19 12:33N 35°37' W 022°47'1717.0
2017-Feb-19 11:33N 35°31' W 023°06'1716.9
2017-Feb-19 10:34N 35°26' W 023°26'1717.0
2017-Feb-19 09:33N 35°20' W 023°46'1717.0
2017-Feb-19 08:33N 35°14' W 024°05'1717.2
2017-Feb-19 07:33N 35°09' W 024°25'1817.5
2017-Feb-19 06:33N 35°03' W 024°45'1817.7
2017-Feb-19 05:33N 34°57' W 025°06'1817.6
2017-Feb-19 04:33N 34°51' W 025°26'1817.6
2017-Feb-19 03:33N 34°44' W 025°46'1817.6
2017-Feb-19 02:33N 34°37' W 026°05'10516.7
2017-Feb-18 20:16N 33°57' W 028°03'1516.5
2017-Feb-18 19:20N 33°52' W 028°21'1316.3
2017-Feb-18 18:31N 33°47' W 028°36'1616.4
2017-Feb-18 17:32N 33°41' W 028°54'3716.2
2017-Feb-18 15:16N 33°27' W 029°34'1216.2
2017-Feb-18 14:31N 33°22' W 029°48'1616.5
2017-Feb-18 13:33N 33°16' W 030°05'1916.7
2017-Feb-18 12:24N 33°08' W 030°26'1416.7
2017-Feb-18 11:33N 33°02' W 030°42'  

Dump ship's entire track history